Time;durP1;ratioP1;P1;durP2;ratioP2;P2;SDS_P1;SDS_P2;PMS_P1;PMS_P2;Temp;Humidity;BMP_temperature;BMP_pressure;BME280_temperature;BME280_humidity;BME280_pressure;Samples;Min_cycle;Max_cycle;Signal;HPM_P1;HPM_P2
2023/07/21 00:00:42;;;;;;;1.33;1.05;;;;;;;19.77;69.44;98122.44;4137358;28;20204;-49
2023/07/21 00:02:45;;;;;;;5.75;1.48;;;;;;;19.76;69.31;98109.66;4137335;28;20301;-50
2023/07/21 00:04:47;;;;;;;2.15;1.20;;;;;;;19.70;69.39;98110.94;4139329;28;20718;-49
2023/07/21 00:06:48;;;;;;;3.28;1.63;;;;;;;19.71;69.91;98110.63;4086995;28;1164688;-49
2023/07/21 00:08:52;;;;;;;3.05;1.45;;;;;;;19.71;69.94;98102.31;4126589;28;20230;-49
2023/07/21 00:10:54;;;;;;;3.72;1.27;;;;;;;19.65;69.75;98105.56;4143273;28;20209;-49
2023/07/21 00:12:56;;;;;;;3.30;1.55;;;;;;;19.62;69.58;98106.16;4152396;28;20212;-50
2023/07/21 00:14:58;;;;;;;2.70;1.88;;;;;;;19.61;69.30;98101.75;4143984;28;20271;-49
2023/07/21 00:17:01;;;;;;;1.90;1.67;;;;;;;19.29;69.67;98099.28;4136669;28;20212;-51
2023/07/21 00:19:02;;;;;;;2.33;1.40;;;;;;;19.28;69.88;98097.63;4152007;28;20240;-50
2023/07/21 00:21:05;;;;;;;5.40;1.25;;;;;;;19.34;69.71;98101.91;4134898;28;20263;-50
2023/07/21 00:23:07;;;;;;;1.45;1.35;;;;;;;19.36;69.62;98102.41;4149978;28;20252;-49
2023/07/21 00:25:11;;;;;;;4.03;1.50;;;;;;;19.43;69.44;98100.00;4143342;28;20213;-51
2023/07/21 00:27:13;;;;;;;2.35;1.30;;;;;;;19.44;69.42;98102.47;4150682;28;20954;-50
2023/07/21 00:29:15;;;;;;;1.50;1.40;;;;;;;19.47;69.15;98099.09;4136855;28;20288;-50
2023/07/21 00:31:17;;;;;;;2.15;1.45;;;;;;;19.47;69.50;98101.03;4139659;28;20608;-50
2023/07/21 00:33:19;;;;;;;1.40;1.30;;;;;;;19.51;69.44;98096.50;4136493;28;20220;-49
2023/07/21 00:35:21;;;;;;;3.15;1.50;;;;;;;19.51;70.64;98104.81;4132913;28;20794;-49
2023/07/21 00:37:23;;;;;;;3.10;1.20;;;;;;;19.42;70.70;98093.66;4143729;28;20209;-50
2023/07/21 00:39:25;;;;;;;1.60;1.50;;;;;;;19.36;71.30;98096.88;4136510;28;20626;-51
2023/07/21 00:41:26;;;;;;;3.58;1.35;;;;;;;19.33;71.56;98089.19;4141715;28;20729;-50
2023/07/21 00:43:28;;;;;;;2.65;1.02;;;;;;;19.34;72.06;98085.28;4128268;28;20241;-48
2023/07/21 00:45:35;;;;;;;2.47;1.60;;;;;;;19.33;71.77;98090.03;4152167;28;20671;-49
2023/07/21 00:47:37;;;;;;;1.70;1.40;;;;;;;19.33;71.89;98089.19;4135691;28;20216;-48
2023/07/21 00:49:38;;;;;;;2.58;1.40;;;;;;;19.33;72.11;98087.25;4150825;28;20261;-49
2023/07/21 00:51:40;;;;;;;1.48;1.20;;;;;;;19.25;72.13;98087.19;4126866;28;20210;-50
2023/07/21 00:53:42;;;;;;;2.28;1.33;;;;;;;19.21;72.02;98080.63;4143668;28;20702;-50
2023/07/21 00:55:46;;;;;;;2.72;1.42;;;;;;;19.22;72.43;98087.78;4137374;28;20283;-50
2023/07/21 00:57:47;;;;;;;1.75;1.20;;;;;;;19.17;72.23;98074.03;4137983;28;20296;-49
2023/07/21 00:59:50;;;;;;;1.23;1.10;;;;;;;19.15;72.21;98082.69;4118004;28;20297;-49
2023/07/21 01:01:56;;;;;;;2.35;1.55;;;;;;;19.11;72.67;98075.31;4140961;28;20269;-50
2023/07/21 01:03:58;;;;;;;1.42;1.20;;;;;;;19.07;73.05;98075.13;4141614;28;20671;-49
2023/07/21 01:06:00;;;;;;;4.20;1.70;;;;;;;19.06;73.31;98078.19;4135659;28;20217;-49
2023/07/21 01:08:06;;;;;;;1.63;1.52;;;;;;;19.23;73.10;98072.78;4134131;28;20691;-49
2023/07/21 01:10:09;;;;;;;2.17;1.30;;;;;;;18.78;74.37;98071.13;4139226;28;20220;-48
2023/07/21 01:12:11;;;;;;;3.50;1.40;;;;;;;18.67;74.73;98070.56;4133299;28;20624;-50
2023/07/21 01:14:13;;;;;;;2.65;1.73;;;;;;;18.60;75.12;98070.16;4141554;28;20263;-49
2023/07/21 01:16:15;;;;;;;1.73;1.33;;;;;;;18.63;74.73;98063.16;4135157;28;20210;-51
2023/07/21 01:18:18;;;;;;;1.85;1.20;;;;;;;18.42;76.26;98065.59;4125853;28;20225;-49
2023/07/21 01:20:22;;;;;;;1.88;1.50;;;;;;;18.49;75.93;98062.38;4138337;28;20218;-49
2023/07/21 01:22:25;;;;;;;1.90;1.77;;;;;;;18.49;75.86;98062.38;4133900;28;20218;-49
2023/07/21 01:24:42;;;;;;;2.00;1.80;;;;;;;18.60;75.60;98063.78;4135345;28;20221;-50
2023/07/21 01:26:44;;;;;;;1.67;1.58;;;;;;;18.67;75.22;98058.63;4134142;28;20269;-49
2023/07/21 01:28:47;;;;;;;5.32;1.45;;;;;;;18.76;75.18;98057.56;4122075;28;20276;-49
2023/07/21 01:30:49;;;;;;;3.83;1.40;;;;;;;18.75;75.12;98049.56;4142490;28;20233;-49
2023/07/21 01:32:52;;;;;;;1.67;1.55;;;;;;;18.80;74.58;98057.75;4147886;28;20288;-50
2023/07/21 01:34:55;;;;;;;1.77;1.15;;;;;;;18.81;74.47;98063.00;4125519;28;20261;-49
2023/07/21 01:36:58;;;;;;;5.80;1.63;;;;;;;18.85;74.03;98061.22;4142927;28;20209;-50
2023/07/21 01:39:00;;;;;;;2.63;1.52;;;;;;;18.88;74.43;98055.06;4150767;28;20229;-49
2023/07/21 01:41:02;;;;;;;3.70;1.73;;;;;;;18.96;74.24;98056.25;4136020;28;20667;-49
2023/07/21 01:43:04;;;;;;;2.88;1.67;;;;;;;18.90;73.96;98057.50;4121258;28;20214;-50
2023/07/21 01:45:07;;;;;;;1.25;1.15;;;;;;;18.87;74.07;98063.69;4142199;28;20312;-51
2023/07/21 01:47:09;;;;;;;2.20;1.02;;;;;;;18.85;74.20;98060.41;4149814;28;20260;-50
2023/07/21 01:49:10;;;;;;;3.60;1.25;;;;;;;18.89;74.09;98064.19;4133030;28;20229;-49
2023/07/21 01:51:16;;;;;;;2.20;1.48;;;;;;;18.89;73.93;98055.88;4141992;28;20608;-49
2023/07/21 01:53:21;;;;;;;1.80;1.55;;;;;;;18.88;73.73;98057.00;4126153;28;20214;-49
2023/07/21 01:55:31;;;;;;;1.67;1.42;;;;;;;18.80;73.76;98063.31;4151040;28;20208;-50
2023/07/21 01:57:43;;;;;;;2.08;1.55;;;;;;;18.77;74.12;98050.88;4150356;28;20196;-49
2023/07/21 01:59:46;;;;;;;2.72;1.58;;;;;;;18.78;73.88;98037.84;4149337;28;20751;-51
2023/07/21 02:01:53;;;;;;;2.55;1.60;;;;;;;18.79;73.68;98034.75;4142025;28;20202;-50
2023/07/21 02:03:55;;;;;;;1.58;1.30;;;;;;;18.72;73.59;98044.66;4134610;28;20205;-49
2023/07/21 02:05:57;;;;;;;1.40;1.30;;;;;;;18.75;73.81;98033.75;4134541;28;20650;-48
2023/07/21 02:07:59;;;;;;;4.50;2.17;;;;;;;18.72;74.39;98039.91;4149311;28;20224;-49
2023/07/21 02:10:02;;;;;;;2.40;2.20;;;;;;;18.74;74.39;98034.06;4142921;28;20300;-49
2023/07/21 02:12:04;;;;;;;2.08;1.50;;;;;;;18.62;75.00;98040.19;4150356;28;20221;-50
2023/07/21 02:14:06;;;;;;;3.03;1.63;;;;;;;18.60;74.97;98047.16;4142234;28;20213;-48
2023/07/21 02:16:09;;;;;;;2.90;1.52;;;;;;;18.52;75.32;98040.41;4140171;28;20264;-49
2023/07/21 02:18:11;;;;;;;4.60;1.67;;;;;;;18.56;75.36;98049.75;4141485;28;20225;-48
2023/07/21 02:20:14;;;;;;;4.00;1.60;;;;;;;18.64;75.29;98048.97;4134658;28;20669;-48
2023/07/21 02:22:16;;;;;;;3.15;1.70;;;;;;;18.66;74.95;98041.16;4148433;28;20212;-50
2023/07/21 02:24:17;;;;;;;2.03;1.38;;;;;;;18.77;74.31;98039.00;4135681;28;20738;-48
2023/07/21 02:26:19;;;;;;;2.00;1.30;;;;;;;18.58;73.72;98032.81;4141238;28;20589;-50
2023/07/21 02:28:21;;;;;;;3.45;1.27;;;;;;;18.02;76.20;98029.59;4142580;28;20236;-51
2023/07/21 02:30:23;;;;;;;1.70;1.38;;;;;;;17.87;76.47;98041.00;4142221;28;20209;-48
2023/07/21 02:32:25;;;;;;;2.05;1.52;;;;;;;17.87;76.27;98038.22;4122998;28;20210;-48
2023/07/21 02:34:27;;;;;;;2.38;1.70;;;;;;;18.09;75.68;98035.53;4140983;28;20209;-49
2023/07/21 02:36:28;;;;;;;1.88;1.65;;;;;;;17.87;75.59;98032.69;4141537;28;20283;-49
2023/07/21 02:38:30;;;;;;;1.73;1.20;;;;;;;17.98;75.52;98034.13;4141702;28;20242;-48
2023/07/21 02:40:32;;;;;;;1.88;1.48;;;;;;;18.01;75.06;98022.44;4137004;28;20583;-48
2023/07/21 02:42:35;;;;;;;2.47;1.40;;;;;;;18.09;75.01;98021.69;4132232;28;20256;-49
2023/07/21 02:44:37;;;;;;;2.65;2.40;;;;;;;18.18;74.39;98028.16;4152512;28;20302;-50
2023/07/21 02:46:39;;;;;;;1.40;1.30;;;;;;;18.28;73.99;98022.38;4141715;28;20229;-49
2023/07/21 02:48:41;;;;;;;2.03;1.80;;;;;;;18.33;73.74;98025.06;4136113;28;20730;-49
2023/07/21 02:50:52;;;;;;;2.42;1.50;;;;;;;18.33;73.90;98030.59;4146715;28;20214;-50
2023/07/21 02:52:54;;;;;;;2.70;1.42;;;;;;;18.38;74.16;98019.41;4134810;28;20212;-48
2023/07/21 02:54:56;;;;;;;1.80;1.55;;;;;;;18.36;73.96;98024.44;4140790;28;20208;-48
2023/07/21 02:56:58;;;;;;;3.10;1.27;;;;;;;18.38;74.19;98022.19;4134991;28;20715;-49
2023/07/21 02:59:02;;;;;;;3.80;2.15;;;;;;;18.43;73.88;98027.59;4132663;28;20233;-51
2023/07/21 03:01:03;;;;;;;1.88;1.48;;;;;;;18.43;74.06;98024.81;4134351;28;20213;-48
2023/07/21 03:03:06;;;;;;;2.45;1.40;;;;;;;18.45;74.14;98028.13;4133386;28;20218;-48
2023/07/21 03:05:08;;;;;;;1.25;1.15;;;;;;;18.43;74.17;98027.59;4122587;28;20590;-51
2023/07/21 03:07:11;;;;;;;2.10;1.50;;;;;;;18.44;74.00;98032.03;4133247;28;20234;-48
2023/07/21 03:09:12;;;;;;;1.63;1.27;;;;;;;18.49;74.20;98027.19;4140666;28;20234;-49
2023/07/21 03:11:17;;;;;;;1.33;1.23;;;;;;;18.55;74.72;98030.63;4133423;28;20285;-49
2023/07/21 03:13:20;;;;;;;3.20;1.58;;;;;;;18.54;75.28;98038.16;4135495;28;20580;-48
2023/07/21 03:15:22;;;;;;;1.63;1.25;;;;;;;18.57;75.97;98037.50;4134652;28;20208;-50
2023/07/21 03:17:23;;;;;;;1.67;1.30;;;;;;;18.45;76.13;98039.22;4137697;28;20209;-50
2023/07/21 03:19:28;;;;;;;1.20;1.17;;;;;;;18.44;76.57;98037.56;4143200;28;20327;-49
2023/07/21 03:21:30;;;;;;;2.13;1.55;;;;;;;18.44;76.67;98043.91;4148800;28;20201;-49
2023/07/21 03:23:32;;;;;;;2.08;1.40;;;;;;;18.43;76.87;98047.81;4136244;28;20679;-49
2023/07/21 03:25:35;;;;;;;1.77;1.67;;;;;;;18.43;76.65;98047.81;4142122;28;20739;-49
2023/07/21 03:27:38;;;;;;;2.45;1.27;;;;;;;18.45;76.65;98050.28;4140747;28;20644;-48
2023/07/21 03:29:40;;;;;;;2.28;1.55;;;;;;;18.44;76.87;98055.00;4133137;28;20578;-49
2023/07/21 03:31:41;;;;;;;2.50;1.27;;;;;;;18.42;76.79;98056.44;4127833;28;20218;-49
2023/07/21 03:33:43;;;;;;;1.77;1.25;;;;;;;18.38;77.16;98058.22;4136966;28;20296;-49
2023/07/21 03:35:45;;;;;;;3.70;1.40;;;;;;;18.39;77.47;98057.06;4136577;28;20210;-48
2023/07/21 03:37:46;;;;;;;2.50;1.48;;;;;;;18.41;77.46;98054.81;4145152;28;20213;-49
2023/07/21 03:39:48;;;;;;;2.25;1.50;;;;;;;18.30;77.72;98053.34;4138541;28;20240;-48
2023/07/21 03:41:50;;;;;;;3.47;1.77;;;;;;;18.37;77.47;98048.22;4134086;28;20217;-49
2023/07/21 03:43:52;;;;;;;2.65;1.27;;;;;;;18.38;76.36;98049.91;4136123;28;20606;-49
2023/07/21 03:46:02;;;;;;;5.18;1.52;;;;;;;18.36;76.17;98052.13;4137923;28;21406;-48
2023/07/21 03:48:04;;;;;;;2.20;2.00;;;;;;;18.32;76.41;98051.13;4133947;28;20233;-49
2023/07/21 03:50:08;;;;;;;2.90;1.38;;;;;;;18.33;76.55;98061.09;4134952;28;20223;-48
2023/07/21 03:52:10;;;;;;;1.55;1.40;;;;;;;18.34;77.04;98054.41;4142425;28;20742;-48
2023/07/21 03:54:12;;;;;;;2.25;1.60;;;;;;;18.32;77.47;98051.13;4140109;28;20216;-49
2023/07/21 03:56:14;;;;;;;3.53;1.55;;;;;;;18.39;78.13;98046.00;4126356;28;20237;-49
2023/07/21 03:58:16;;;;;;;1.85;1.40;;;;;;;18.18;79.73;98039.25;4141874;28;20233;-48
2023/07/21 04:00:18;;;;;;;1.88;1.67;;;;;;;18.09;80.25;98041.06;4153801;28;20271;-48
2023/07/21 04:02:20;;;;;;;2.28;1.40;;;;;;;18.11;80.23;98044.38;4143179;28;20205;-48
2023/07/21 04:04:22;;;;;;;2.15;1.40;;;;;;;17.69;81.96;98048.28;4142187;28;20290;-49
2023/07/21 04:06:24;;;;;;;2.85;1.60;;;;;;;17.76;81.65;98047.88;4143988;28;20205;-49
2023/07/21 04:08:26;;;;;;;2.75;1.60;;;;;;;17.88;81.16;98053.72;4142595;28;20260;-48
2023/07/21 04:10:29;;;;;;;3.17;1.50;;;;;;;17.93;80.81;98053.63;4142148;28;20765;-48
2023/07/21 04:12:31;;;;;;;3.28;1.67;;;;;;;18.04;80.94;98055.06;4142974;28;20216;-49
2023/07/21 04:14:33;;;;;;;8.23;1.50;;;;;;;17.69;80.97;98042.75;4132397;28;20260;-49
2023/07/21 04:16:35;;;;;;;3.55;1.73;;;;;;;17.36;81.54;98045.84;4143586;28;20225;-49
2023/07/21 04:18:37;;;;;;;2.40;1.75;;;;;;;17.55;81.22;98046.63;4133193;28;22069;-48
2023/07/21 04:20:39;;;;;;;3.70;2.22;;;;;;;17.78;79.80;98040.09;4152282;28;20733;-48
2023/07/21 04:22:41;;;;;;;6.93;2.00;;;;;;;17.49;80.79;98039.56;4142283;28;20213;-48
2023/07/21 04:24:42;;;;;;;3.90;1.60;;;;;;;17.52;81.14;98036.19;4142001;28;20213;-48
2023/07/21 04:26:44;;;;;;;5.32;1.65;;;;;;;17.45;81.76;98030.25;4149748;28;20275;-48
2023/07/21 04:28:46;;;;;;;6.40;1.80;;;;;;;17.34;82.37;98028.75;4136862;28;20594;-48
2023/07/21 04:30:53;;;;;;;4.97;1.55;;;;;;;17.26;83.26;98032.22;4140723;28;20914;-49
2023/07/21 04:32:57;;;;;;;5.15;1.30;;;;;;;17.15;83.42;98025.22;4135222;28;20251;-48
2023/07/21 04:34:59;;;;;;;3.10;1.33;;;;;;;17.25;83.05;98030.59;4145688;28;20204;-48
2023/07/21 04:37:09;;;;;;;2.20;1.70;;;;;;;17.28;83.06;98027.19;4135545;28;20217;-49
2023/07/21 04:39:11;;;;;;;2.03;1.27;;;;;;;17.24;83.24;98024.22;4139078;28;20249;-48
2023/07/21 04:41:13;;;;;;;3.88;1.70;;;;;;;17.36;82.74;98026.50;4134796;28;20221;-49
2023/07/21 04:43:16;;;;;;;2.58;1.42;;;;;;;17.50;82.62;98027.34;4134777;28;20217;-49
2023/07/21 04:45:21;;;;;;;1.60;1.30;;;;;;;17.62;82.35;98024.91;4139827;28;20223;-48
2023/07/21 04:47:22;;;;;;;1.70;1.60;;;;;;;17.68;82.37;98029.22;4149578;28;20233;-49
2023/07/21 04:49:24;;;;;;;1.98;1.52;;;;;;;17.62;82.32;98025.75;4136939;28;20269;-48
2023/07/21 04:51:26;;;;;;;3.10;2.35;;;;;;;17.47;81.82;98033.50;4138667;28;20217;-49
2023/07/21 04:53:28;;;;;;;8.25;2.13;;;;;;;17.21;82.99;98035.06;4148802;28;20742;-49
2023/07/21 04:55:30;;;;;;;7.90;1.63;;;;;;;17.24;82.86;98032.53;4152446;28;20208;-49
2023/07/21 04:57:34;;;;;;;2.42;1.60;;;;;;;17.00;83.92;98033.81;4150446;28;20211;-49
2023/07/21 04:59:36;;;;;;;4.43;1.60;;;;;;;17.03;83.86;98031.25;4136155;28;20578;-48
2023/07/21 05:01:38;;;;;;;4.15;2.17;;;;;;;17.09;83.92;98031.97;4151474;28;20206;-49
2023/07/21 05:03:41;;;;;;;12.75;1.67;;;;;;;17.28;83.11;98027.19;4140486;28;20219;-49
2023/07/21 05:05:45;;;;;;;2.25;1.60;;;;;;;17.36;82.80;98034.78;4140024;28;20229;-49
2023/07/21 05:07:46;;;;;;;2.60;1.42;;;;;;;17.37;82.80;98031.75;4138416;28;20221;-49
2023/07/21 05:09:48;;;;;;;1.55;1.20;;;;;;;17.46;82.76;98026.34;4117772;28;20707;-48
2023/07/21 05:11:50;;;;;;;3.22;1.58;;;;;;;17.43;82.81;98029.69;4140062;28;20209;-50
2023/07/21 05:13:52;;;;;;;2.60;1.33;;;;;;;17.49;82.57;98031.25;4137640;28;20210;-48
2023/07/21 05:15:54;;;;;;;7.68;1.20;;;;;;;17.52;82.47;98036.19;4135537;28;20570;-48
2023/07/21 05:17:56;;;;;;;1.33;1.17;;;;;;;17.67;82.08;98038.66;4134126;28;21114;-48
2023/07/21 05:19:58;;;;;;;3.53;1.42;;;;;;;17.67;82.05;98027.56;4133956;28;20218;-48
2023/07/21 05:22:01;;;;;;;1.98;1.23;;;;;;;17.69;81.93;98036.38;4134892;28;20205;-49
2023/07/21 05:24:03;;;;;;;3.72;1.55;;;;;;;17.87;81.49;98033.53;4135093;28;20213;-49
2023/07/21 05:26:05;;;;;;;4.40;1.40;;;;;;;17.93;80.74;98037.81;4137435;28;20213;-49
2023/07/21 05:28:06;;;;;;;3.25;1.33;;;;;;;17.85;81.06;98035.78;4132289;28;20777;-49
2023/07/21 05:30:11;;;;;;;2.53;1.25;;;;;;;17.95;80.80;98040.28;4135055;28;20213;-47
2023/07/21 05:32:15;;;;;;;4.85;1.25;;;;;;;18.15;80.30;98034.31;4140101;28;20209;-47
2023/07/21 05:34:17;;;;;;;6.38;1.35;;;;;;;18.27;80.99;98031.81;4151156;28;20263;-48
2023/07/21 05:36:18;;;;;;;5.15;1.50;;;;;;;18.38;82.09;98027.72;4146191;28;20212;-47
2023/07/21 05:38:20;;;;;;;3.75;1.30;;;;;;;18.39;81.88;98029.38;4135190;28;20221;-48
2023/07/21 05:40:22;;;;;;;1.67;1.20;;;;;;;18.45;81.87;98030.91;4136088;28;20572;-47
2023/07/21 05:42:24;;;;;;;1.67;1.55;;;;;;;18.51;80.90;98037.97;4132767;28;21663;-48
2023/07/21 05:44:26;;;;;;;5.03;1.50;;;;;;;18.48;80.68;98033.03;4133753;28;20213;-47
2023/07/21 05:46:28;;;;;;;2.75;1.58;;;;;;;18.49;81.74;98037.44;4116898;28;20209;-47
2023/07/21 05:48:30;;;;;;;3.53;1.40;;;;;;;18.60;81.44;98047.16;4143430;28;20286;-48
2023/07/21 05:50:35;;;;;;;3.05;1.20;;;;;;;18.49;81.96;98046.56;4130576;28;20244;-49
2023/07/21 05:52:37;;;;;;;6.00;1.42;;;;;;;18.66;81.31;98051.44;4144386;28;20215;-47
2023/07/21 05:54:39;;;;;;;4.72;1.75;;;;;;;18.64;81.21;98048.19;4133869;28;20281;-47
2023/07/21 05:56:41;;;;;;;6.57;1.20;;;;;;;18.41;84.09;98054.81;4131029;28;20217;-48
2023/07/21 05:58:43;;;;;;;13.60;2.13;;;;;;;18.54;82.91;98048.41;4131306;28;20221;-48
2023/07/21 06:00:45;;;;;;;3.15;1.77;;;;;;;18.43;84.16;98053.38;4137193;28;20252;-48
2023/07/21 06:02:47;;;;;;;4.72;1.98;;;;;;;18.52;83.51;98054.25;4129141;28;20238;-48
2023/07/21 06:04:51;;;;;;;2.92;1.92;;;;;;;18.57;84.25;98053.34;4134274;28;20217;-48
2023/07/21 06:06:56;;;;;;;3.30;2.08;;;;;;;18.60;83.90;98059.06;4132395;28;20691;-48
2023/07/21 06:08:58;;;;;;;1.98;1.77;;;;;;;18.62;84.04;98061.50;4134741;28;20244;-47
2023/07/21 06:11:01;;;;;;;2.03;1.83;;;;;;;18.66;85.19;98068.09;4148977;28;20298;-48
2023/07/21 06:13:04;;;;;;;1.52;1.42;;;;;;;18.71;85.70;98059.66;4121366;28;20218;-48
2023/07/21 06:15:07;;;;;;;2.08;1.60;;;;;;;18.61;85.07;98065.41;4135814;28;20256;-48
2023/07/21 06:17:19;;;;;;;2.85;1.75;;;;;;;18.50;86.58;98064.84;4132619;28;20216;-48
2023/07/21 06:19:24;;;;;;;1.52;1.42;;;;;;;18.28;87.07;98061.16;4133848;28;20232;-48
2023/07/21 06:21:26;;;;;;;2.28;1.98;;;;;;;18.36;86.74;98069.59;4133007;28;20209;-52
2023/07/21 06:23:28;;;;;;;2.33;2.13;;;;;;;18.48;86.42;98071.81;4132337;28;20213;-49
2023/07/21 06:25:30;;;;;;;1.75;1.65;;;;;;;18.53;86.93;98074.50;4135052;28;20209;-49
2023/07/21 06:27:35;;;;;;;2.13;1.50;;;;;;;18.56;86.28;98062.75;4132892;28;20349;-50
2023/07/21 06:29:50;;;;;;;6.78;2.15;;;;;;;18.56;87.27;98057.22;4134913;28;20241;-48
2023/07/21 06:31:53;;;;;;;3.25;1.55;;;;;;;18.62;86.08;98069.81;4134369;28;20237;-49
2023/07/21 06:33:58;;;;;;;2.22;2.08;;;;;;;18.52;86.10;98056.22;4121893;28;20206;-49
2023/07/21 06:36:00;;;;;;;2.13;1.90;;;;;;;18.25;86.43;98067.34;4146209;28;20233;-49
2023/07/21 06:38:27;;;;;;;2.03;1.65;;;;;;;18.43;86.63;98060.84;4143607;23;20692;-55
2023/07/21 06:40:37;;;;;;;2.85;1.35;;;;;;;18.52;87.73;98061.75;4120898;28;20294;-49
2023/07/21 06:42:43;;;;;;;3.42;1.45;;;;;;;18.69;88.39;98067.44;4122406;28;20216;-49
2023/07/21 06:44:54;;;;;;;3.83;1.85;;;;;;;18.77;88.51;98069.50;4125597;28;20213;-48
2023/07/21 06:46:56;;;;;;;3.67;2.38;;;;;;;18.80;88.84;98064.13;4110142;28;20602;-50
2023/07/21 06:49:02;;;;;;;1.73;1.52;;;;;;;18.91;87.17;98059.16;4120309;28;20825;-49
2023/07/21 06:51:05;;;;;;;3.45;1.77;;;;;;;18.80;86.83;98057.75;4122105;28;20260;-49
2023/07/21 06:53:08;;;;;;;2.55;2.15;;;;;;;18.87;88.69;98052.59;4106877;28;20206;-50
2023/07/21 06:55:13;;;;;;;5.28;2.17;;;;;;;18.90;87.60;98068.59;4133767;28;20209;-48
2023/07/21 06:57:19;;;;;;;1.88;1.77;;;;;;;18.91;86.82;98062.75;4123748;28;20667;-49
2023/07/21 06:59:21;;;;;;;2.30;1.85;;;;;;;18.98;87.27;98054.00;4102769;28;20270;-48
2023/07/21 07:01:23;;;;;;;2.65;2.45;;;;;;;19.12;86.11;98055.53;4117718;28;20206;-49
2023/07/21 07:03:26;;;;;;;1.88;1.55;;;;;;;19.14;84.28;98052.47;4140149;28;20197;-49
2023/07/21 07:05:41;;;;;;;2.05;1.58;;;;;;;19.03;84.27;98056.63;4126479;28;20213;-49
2023/07/21 07:07:43;;;;;;;2.50;1.60;;;;;;;19.21;82.45;98061.19;4126719;28;20221;-49
2023/07/21 07:09:48;;;;;;;3.72;1.65;;;;;;;19.37;82.41;98056.91;4128016;28;20485;-48
2023/07/21 07:11:53;;;;;;;1.58;1.42;;;;;;;19.13;80.29;98053.59;4127223;28;20577;-49
2023/07/21 07:14:02;;;;;;;1.80;1.38;;;;;;;19.26;80.38;98055.53;4143327;28;20198;-49
2023/07/21 07:16:05;;;;;;;3.25;1.52;;;;;;;19.42;80.75;98059.53;4129527;28;20232;-49
2023/07/21 07:18:10;;;;;;;2.65;1.73;;;;;;;19.33;77.42;98061.44;4126309;28;20299;-48
2023/07/21 07:20:12;;;;;;;1.85;1.35;;;;;;;19.52;76.29;98067.59;4128590;28;20261;-48
2023/07/21 07:22:25;;;;;;;2.55;1.23;;;;;;;19.68;75.24;98066.84;4145829;28;20296;-49
2023/07/21 07:24:28;;;;;;;2.63;1.70;;;;;;;19.63;74.70;98060.59;4121369;28;20265;-49
2023/07/21 07:26:31;;;;;;;1.95;1.40;;;;;;;19.73;75.31;98071.44;4126729;28;20213;-49
2023/07/21 07:28:33;;;;;;;2.78;1.27;;;;;;;19.74;73.98;98065.59;4127979;28;20312;-49
2023/07/21 07:30:35;;;;;;;1.33;1.02;;;;;;;19.66;74.04;98073.88;4144082;28;22305;-49
2023/07/21 07:32:37;;;;;;;3.45;1.42;;;;;;;19.67;73.78;98068.00;4129507;28;20209;-49
2023/07/21 07:34:41;;;;;;;2.60;1.52;;;;;;;19.76;74.95;98070.78;4127496;28;20206;-49
2023/07/21 07:36:51;;;;;;;1.73;1.10;;;;;;;19.76;74.88;98076.34;4111056;28;20293;-49
2023/07/21 07:38:53;;;;;;;1.52;1.10;;;;;;;19.76;75.29;98076.34;4126567;28;20677;-49
2023/07/21 07:41:03;;;;;;;2.10;1.23;;;;;;;19.77;74.28;98081.59;4110581;28;20222;-48
2023/07/21 07:43:05;;;;;;;1.25;1.15;;;;;;;19.73;74.01;98068.66;4142849;28;20201;-46
2023/07/21 07:45:07;;;;;;;3.55;1.17;;;;;;;19.69;71.87;98076.00;4125980;28;20210;-52
2023/07/21 07:47:09;;;;;;;4.00;1.02;;;;;;;19.75;73.56;98075.53;4122415;28;20209;-48
2023/07/21 07:49:11;;;;;;;1.88;1.23;;;;;;;19.73;73.18;98088.09;4116823;28;20244;-50
2023/07/21 07:51:13;;;;;;;3.03;1.23;;;;;;;19.65;73.80;98084.13;4112428;28;20205;-50
2023/07/21 07:53:15;;;;;;;3.65;1.30;;;;;;;19.80;72.96;98082.91;4116645;28;20205;-49
2023/07/21 07:55:18;;;;;;;2.25;1.48;;;;;;;19.87;72.34;98086.03;4112411;28;20220;-49
2023/07/21 07:57:20;;;;;;;1.58;1.10;;;;;;;19.85;73.74;98080.81;4117723;28;20206;-48
2023/07/21 07:59:21;;;;;;;2.10;1.60;;;;;;;19.97;74.38;98088.56;4116554;28;20225;-49
2023/07/21 08:01:23;;;;;;;4.30;1.65;;;;;;;19.86;78.07;98087.19;4118276;28;20660;-49
2023/07/21 08:03:26;;;;;;;1.30;1.20;;;;;;;20.11;78.28;98089.28;4122170;28;20233;-48
2023/07/21 08:05:28;;;;;;;1.20;1.10;;;;;;;20.25;79.44;98090.78;4120946;28;20209;-48
2023/07/21 08:07:30;;;;;;;1.60;1.50;;;;;;;20.29;75.33;98085.41;4120400;28;20943;-49
2023/07/21 08:09:31;;;;;;;2.40;1.48;;;;;;;20.32;75.61;98084.78;4101527;28;20245;-48
2023/07/21 08:11:33;;;;;;;2.60;1.42;;;;;;;20.27;74.40;98096.03;4118010;28;20699;-48
2023/07/21 08:13:35;;;;;;;1.40;1.30;;;;;;;20.09;74.34;98088.78;4134330;28;20235;-48
2023/07/21 08:15:40;;;;;;;1.55;1.38;;;;;;;20.20;75.59;98087.34;4120036;28;20553;-48
2023/07/21 08:18:01;;;;;;;2.42;1.42;;;;;;;20.18;76.57;98095.19;4123463;28;20209;-48
2023/07/21 08:20:12;;;;;;;2.25;1.42;;;;;;;20.26;77.36;98099.97;4126403;28;20349;-49
2023/07/21 08:22:15;;;;;;;1.20;1.10;;;;;;;20.23;74.64;98100.59;4143571;28;20642;-47
2023/07/21 08:24:16;;;;;;;2.65;1.63;;;;;;;20.04;74.43;98100.81;4114404;28;20211;-49
2023/07/21 08:26:19;;;;;;;2.50;1.83;;;;;;;20.17;74.49;98093.56;4125721;28;20333;-48
2023/07/21 08:28:20;;;;;;;2.38;1.05;;;;;;;19.76;74.87;98087.47;4140573;28;20295;-48
2023/07/21 08:30:22;;;;;;;1.92;1.35;;;;;;;19.68;76.89;98091.84;4109609;28;20407;-51
2023/07/21 08:32:24;;;;;;;1.95;1.15;;;;;;;19.70;73.61;98085.97;4105937;28;20540;-49
2023/07/21 08:34:26;;;;;;;1.90;1.10;;;;;;;19.84;72.81;98083.94;4126713;28;20238;-49
2023/07/21 08:36:27;;;;;;;3.60;1.20;;;;;;;19.68;71.86;98085.47;4127416;28;20206;-49
2023/07/21 08:38:50;;;;;;;1.98;1.23;;;;;;;19.79;74.20;98092.38;4126493;28;20233;-49
2023/07/21 08:40:58;;;;;;;1.77;1.30;;;;;;;19.77;74.81;98091.91;4142058;28;20208;-49
2023/07/21 08:43:02;;;;;;;7.70;1.60;;;;;;;19.75;74.25;98097.75;4110482;28;20288;-49
2023/07/21 08:45:05;;;;;;;1.85;0.95;;;;;;;19.74;73.79;98100.84;4110390;28;20218;-49
2023/07/21 08:47:09;;;;;;;1.58;1.17;;;;;;;19.84;74.32;98090.28;4127072;28;20210;-50
2023/07/21 08:49:12;;;;;;;1.70;1.13;;;;;;;19.77;72.89;98089.91;4128820;28;20226;-49
2023/07/21 08:51:14;;;;;;;5.15;1.20;;;;;;;19.70;73.14;98083.19;4126982;28;20263;-49
2023/07/21 08:53:15;;;;;;;1.50;1.40;;;;;;;19.81;72.63;98085.38;4143687;28;20217;-49
2023/07/21 08:55:17;;;;;;;4.00;1.00;;;;;;;19.83;71.80;98088.66;4127616;28;20237;-49
2023/07/21 08:57:19;;;;;;;1.85;1.23;;;;;;;19.94;72.19;98094.75;4142556;28;20213;-49
2023/07/21 08:59:21;;;;;;;1.23;0.98;;;;;;;19.93;70.93;98088.38;4126298;28;20284;-49
2023/07/21 09:01:23;;;;;;;4.82;2.38;;;;;;;20.01;69.57;98090.38;4126619;28;20709;-48
2023/07/21 09:03:25;;;;;;;5.13;1.00;;;;;;;19.81;69.26;98085.38;4130682;28;20210;-48
2023/07/21 09:05:27;;;;;;;1.38;1.02;;;;;;;19.89;69.43;98089.31;4125167;28;20214;-50
2023/07/21 09:07:30;;;;;;;6.57;1.20;;;;;;;19.91;68.54;98090.63;4127471;28;20206;-50
2023/07/21 09:09:32;;;;;;;1.83;0.90;;;;;;;20.00;67.80;98087.91;4127541;28;20244;-49
2023/07/21 09:11:35;;;;;;;1.50;1.40;;;;;;;20.18;67.76;98089.63;4122520;28;20217;-48
2023/07/21 09:13:37;;;;;;;1.17;1.05;;;;;;;20.40;67.20;98086.75;4120682;28;20210;-48
2023/07/21 09:15:50;;;;;;;1.30;0.73;;;;;;;20.47;66.06;98085.13;4115290;28;20817;-49
2023/07/21 09:17:53;;;;;;;2.13;1.10;;;;;;;20.54;65.63;98081.88;4099702;28;20214;-49
2023/07/21 09:19:55;;;;;;;2.47;1.00;;;;;;;20.72;65.60;98087.13;4138858;28;20212;-49
2023/07/21 09:21:57;;;;;;;1.25;1.10;;;;;;;20.53;65.50;98091.34;4123411;28;20236;-49
2023/07/21 09:24:03;;;;;;;1.25;1.10;;;;;;;20.68;65.37;98086.16;4118459;28;21130;-49
2023/07/21 09:26:05;;;;;;;2.35;1.30;;;;;;;20.49;64.54;98104.25;4133706;28;20213;-48
2023/07/21 09:28:19;;;;;;;1.35;1.00;;;;;;;20.62;65.33;98092.16;4113719;28;20216;-48
2023/07/21 09:30:22;;;;;;;2.17;0.90;;;;;;;20.87;66.46;98091.38;4121364;28;20228;-48
2023/07/21 09:32:24;;;;;;;2.90;1.70;;;;;;;20.75;64.84;98094.00;4122457;28;20608;-48
2023/07/21 09:34:26;;;;;;;1.55;1.00;;;;;;;20.62;64.39;98100.50;4123984;28;20208;-48
2023/07/21 09:36:28;;;;;;;1.13;1.00;;;;;;;20.85;65.68;98091.69;4122888;28;20576;-48
2023/07/21 09:38:31;;;;;;;1.23;1.00;;;;;;;21.00;64.48;98090.44;4122207;28;20344;-48
2023/07/21 09:40:32;;;;;;;1.20;1.10;;;;;;;21.18;64.82;98092.06;4120491;28;20580;-48